Time;durP1;ratioP1;P1;durP2;ratioP2;P2;SDS_P1;SDS_P2;PMS_P1;PMS_P2;Temp;Humidity;BMP_temperature;BMP_pressure;BME280_temperature;BME280_humidity;BME280_pressure;Samples;Min_cycle;Max_cycle;Signal;HPM_P1;HPM_P2
2022/05/31 00:00:34;;;;;;;7.72;3.50;;;11.40;99.90;;;;;;5089007;28;20020;-61
2022/05/31 00:03:02;;;;;;;7.53;3.10;;;11.40;99.90;;;;;;5092637;28;20679;-60
2022/05/31 00:05:27;;;;;;;5.40;3.50;;;11.40;99.90;;;;;;5088024;28;20024;-61
2022/05/31 00:07:53;;;;;;;6.97;3.25;;;11.40;99.90;;;;;;5093373;28;20432;-61
2022/05/31 00:10:19;;;;;;;6.53;3.53;;;11.30;99.90;;;;;;5095492;28;20555;-61
2022/05/31 00:12:45;;;;;;;7.20;3.90;;;11.30;99.90;;;;;;5082827;28;20136;-60
2022/05/31 00:15:14;;;;;;;7.20;3.78;;;11.30;99.90;;;;;;5078650;28;20043;-61
2022/05/31 00:17:41;;;;;;;8.95;3.85;;;11.00;99.90;;;;;;5081379;28;20504;-60
2022/05/31 00:20:10;;;;;;;6.43;3.70;;;11.20;99.90;;;;;;5094917;28;20854;-61
2022/05/31 00:22:37;;;;;;;7.28;3.80;;;11.20;99.90;;;;;;5099921;28;20035;-60
2022/05/31 00:25:05;;;;;;;6.75;3.90;;;11.20;99.90;;;;;;5091003;28;20030;-60
2022/05/31 00:27:30;;;;;;;8.90;4.20;;;11.20;99.90;;;;;;5091714;28;20027;-60
2022/05/31 00:29:56;;;;;;;8.82;4.20;;;11.20;99.90;;;;;;5085676;28;20103;-60
2022/05/31 00:32:25;;;;;;;5.40;4.03;;;11.10;99.90;;;;;;5080869;28;20065;-60
2022/05/31 00:34:53;;;;;;;5.47;3.55;;;11.10;99.90;;;;;;5088569;28;20027;-59
2022/05/31 00:37:19;;;;;;;8.05;4.18;;;11.00;99.90;;;;;;5087765;28;20107;-60
2022/05/31 00:39:45;;;;;;;8.05;4.15;;;11.00;99.90;;;;;;5093247;28;20015;-60
2022/05/31 00:42:17;;;;;;;6.32;4.30;;;11.00;99.90;;;;;;5082737;28;20537;-60
2022/05/31 00:44:43;;;;;;;6.38;4.18;;;10.80;99.90;;;;;;5090838;28;20026;-61
2022/05/31 00:47:17;;;;;;;7.03;4.28;;;10.70;99.90;;;;;;5086579;28;20035;-61
2022/05/31 00:49:59;;;;;;;9.98;4.10;;;10.90;99.90;;;;;;5094809;28;20050;-61
2022/05/31 00:52:41;;;;;;;10.73;4.15;;;10.90;99.90;;;;;;5083478;28;20464;-60
2022/05/31 00:55:18;;;;;;;5.93;4.07;;;10.90;99.90;;;;;;5087173;28;20422;-60
2022/05/31 00:57:53;;;;;;;6.93;4.13;;;11.00;99.90;;;;;;5085856;28;20031;-60
2022/05/31 01:00:19;;;;;;;5.93;4.03;;;10.90;99.90;;;;;;5092068;28;20031;-60
2022/05/31 01:02:46;;;;;;;7.93;4.47;;;10.90;99.90;;;;;;5087275;28;20039;-61
2022/05/31 01:05:13;;;;;;;7.00;4.30;;;10.80;99.90;;;;;;5090033;28;20020;-60
2022/05/31 01:07:39;;;;;;;7.80;4.78;;;10.80;99.90;;;;;;5083433;28;20024;-60
2022/05/31 01:10:08;;;;;;;8.20;4.88;;;10.70;99.90;;;;;;5088595;28;20028;-60
2022/05/31 01:12:34;;;;;;;9.02;4.88;;;10.80;99.90;;;;;;5080720;28;20039;-61
2022/05/31 01:15:01;;;;;;;6.15;4.20;;;10.80;99.90;;;;;;5080478;28;20386;-60
2022/05/31 01:17:27;;;;;;;7.60;4.53;;;10.80;99.90;;;;;;5099630;28;20039;-61
2022/05/31 01:19:57;;;;;;;9.00;4.90;;;10.80;99.90;;;;;;5095077;28;20028;-60
2022/05/31 01:22:37;;;;;;;8.00;4.65;;;10.70;99.90;;;;;;5093746;28;20023;-61
2022/05/31 01:25:25;;;;;;;8.93;4.60;;;10.80;99.90;;;;;;5089590;28;20039;-60
2022/05/31 01:28:20;;;;;;;10.10;5.20;;;10.70;99.90;;;;;;5092899;28;20043;-61
2022/05/31 01:31:11;;;;;;;7.32;4.82;;;10.70;99.90;;;;;;5061515;28;20757;-61
2022/05/31 01:33:46;;;;;;;7.60;4.97;;;10.70;99.90;;;;;;5083419;28;20044;-60
2022/05/31 01:36:22;;;;;;;5.20;4.22;;;10.70;99.90;;;;;;5092514;28;20054;-60
2022/05/31 01:39:15;;;;;;;6.82;4.55;;;10.60;99.90;;;;;;5087286;28;20020;-59
2022/05/31 01:42:09;;;;;;;7.43;5.05;;;10.60;99.90;;;;;;5086019;28;20024;-60
2022/05/31 01:44:38;;;;;;;6.63;4.65;;;10.40;99.90;;;;;;5084407;28;20031;-60
2022/05/31 01:47:04;;;;;;;7.40;4.70;;;10.50;99.90;;;;;;5087118;28;20419;-60
2022/05/31 01:49:37;;;;;;;7.50;5.18;;;10.50;99.90;;;;;;5087384;28;20085;-61
2022/05/31 01:52:04;;;;;;;7.47;5.18;;;10.50;99.90;;;;;;5082444;28;20140;-61
2022/05/31 01:54:30;;;;;;;7.75;4.90;;;10.50;99.90;;;;;;5082421;28;20032;-59
2022/05/31 01:56:59;;;;;;;10.20;5.80;;;10.50;99.90;;;;;;5089235;28;20119;-61
2022/05/31 01:59:29;;;;;;;9.40;6.00;;;10.60;99.90;;;;;;5093753;28;20383;-60
2022/05/31 02:01:56;;;;;;;9.32;5.30;;;10.60;99.90;;;;;;5087972;28;20479;-60
2022/05/31 02:04:22;;;;;;;8.13;5.43;;;10.60;99.90;;;;;;5082754;28;20023;-60
2022/05/31 02:07:10;;;;;;;9.13;5.47;;;10.60;99.90;;;;;;5086847;28;20028;-61
2022/05/31 02:09:33;;;;;;;8.27;5.43;;;10.70;99.90;;;;;;5090547;28;20025;-60
2022/05/31 02:11:58;;;;;;;9.45;6.10;;;10.70;99.90;;;;;;5084428;28;20031;-60
2022/05/31 02:14:24;;;;;;;8.77;5.45;;;10.70;99.90;;;;;;5086797;28;20580;-60
2022/05/31 02:16:49;;;;;;;7.45;5.07;;;10.80;99.90;;;;;;5088983;28;20391;-61
2022/05/31 02:19:17;;;;;;;7.50;4.72;;;10.70;99.90;;;;;;5089276;28;20024;-61
2022/05/31 02:21:43;;;;;;;11.48;5.00;;;10.90;99.90;;;;;;5075220;28;20032;-61
2022/05/31 02:24:14;;;;;;;6.97;4.63;;;10.80;99.90;;;;;;5081087;28;20047;-60
2022/05/31 02:26:42;;;;;;;7.30;4.72;;;10.90;99.90;;;;;;5089762;28;20042;-60
2022/05/31 02:29:09;;;;;;;6.95;4.05;;;11.00;99.90;;;;;;5073601;28;20126;-60
2022/05/31 02:31:36;;;;;;;8.52;4.60;;;11.00;99.90;;;;;;5091383;28;20032;-60
2022/05/31 02:34:03;;;;;;;9.85;4.47;;;11.00;99.90;;;;;;5088069;28;20051;-60
2022/05/31 02:36:28;;;;;;;7.47;4.32;;;11.10;99.90;;;;;;5089151;28;20352;-60
2022/05/31 02:38:55;;;;;;;6.50;4.20;;;11.10;99.90;;;;;;5082647;28;20039;-60
2022/05/31 02:41:21;;;;;;;9.45;4.55;;;11.10;99.90;;;;;;5085402;28;20016;-61
2022/05/31 02:43:47;;;;;;;7.07;4.70;;;11.10;99.90;;;;;;5088878;28;20488;-61
2022/05/31 02:46:13;;;;;;;8.88;4.53;;;11.10;99.90;;;;;;5082632;28;20016;-61
2022/05/31 02:48:39;;;;;;;7.30;4.20;;;11.10;99.90;;;;;;5086217;28;20024;-61
2022/05/31 02:51:05;;;;;;;8.27;4.75;;;11.10;99.90;;;;;;5090238;28;20028;-60
2022/05/31 02:53:30;;;;;;;8.73;4.50;;;11.10;99.90;;;;;;5082142;28;20395;-60
2022/05/31 02:55:57;;;;;;;10.02;4.38;;;11.20;99.90;;;;;;5087707;28;20027;-60
2022/05/31 02:58:26;;;;;;;8.85;4.10;;;11.20;99.90;;;;;;5089349;28;20684;-60
2022/05/31 03:00:52;;;;;;;6.25;4.15;;;11.10;99.90;;;;;;5076463;28;20100;-60
2022/05/31 03:03:18;;;;;;;9.13;4.43;;;11.10;99.90;;;;;;5083215;28;20031;-60
2022/05/31 03:05:44;;;;;;;9.40;4.05;;;11.10;99.90;;;;;;5088791;28;20110;-61
2022/05/31 03:08:11;;;;;;;7.22;4.03;;;11.20;99.90;;;;;;5092198;28;20024;-61
2022/05/31 03:10:40;;;;;;;6.13;3.95;;;11.20;99.90;;;;;;5091773;28;20123;-60
2022/05/31 03:13:09;;;;;;;6.35;3.42;;;11.20;99.90;;;;;;5090997;28;20604;-61
2022/05/31 03:15:36;;;;;;;5.63;3.70;;;11.20;99.90;;;;;;5074076;28;20027;-61
2022/05/31 03:18:08;;;;;;;5.38;4.13;;;11.30;99.90;;;;;;5086818;28;20475;-61
2022/05/31 03:20:55;;;;;;;5.70;3.70;;;11.20;99.90;;;;;;5084015;28;20016;-61
2022/05/31 03:23:30;;;;;;;8.10;3.58;;;11.20;99.90;;;;;;5094826;28;20033;-60
2022/05/31 03:25:59;;;;;;;5.05;3.40;;;11.20;99.90;;;;;;5085680;28;20028;-60
2022/05/31 03:28:25;;;;;;;7.82;3.70;;;11.30;99.90;;;;;;5092403;28;20054;-60
2022/05/31 03:30:51;;;;;;;7.25;3.55;;;11.30;99.90;;;;;;5086517;28;20036;-60
2022/05/31 03:33:17;;;;;;;5.90;3.30;;;11.40;99.90;;;;;;5093050;28;20034;-61
2022/05/31 03:35:42;;;;;;;6.88;3.33;;;11.40;99.90;;;;;;5087138;28;20039;-61
2022/05/31 03:38:08;;;;;;;6.40;3.70;;;11.30;99.90;;;;;;5083125;28;21314;-61
2022/05/31 03:43:17;;;;;;;6.03;3.47;;;11.40;99.90;;;;;;5095863;28;20449;-60
2022/05/31 03:45:44;;;;;;;4.95;3.55;;;11.50;99.90;;;;;;5092210;28;20027;-60
2022/05/31 03:48:11;;;;;;;7.05;3.33;;;11.30;99.90;;;;;;5081624;28;20032;-61
2022/05/31 03:50:38;;;;;;;5.60;3.40;;;11.30;99.90;;;;;;5092667;28;20023;-61
2022/05/31 03:53:06;;;;;;;5.45;3.25;;;11.40;99.90;;;;;;5077799;28;20038;-61
2022/05/31 03:55:31;;;;;;;6.65;3.10;;;11.40;99.90;;;;;;5086439;28;20038;-61
2022/05/31 03:57:57;;;;;;;6.30;3.10;;;11.40;99.90;;;;;;5090744;28;20044;-60
2022/05/31 04:00:23;;;;;;;5.82;3.17;;;11.40;99.90;;;;;;5094335;28;20038;-60
2022/05/31 04:02:48;;;;;;;4.25;3.10;;;11.40;99.90;;;;;;5082927;28;20351;-61
2022/05/31 04:05:14;;;;;;;4.07;3.08;;;11.40;99.90;;;;;;5089289;28;20016;-61
2022/05/31 04:07:40;;;;;;;5.43;3.30;;;11.50;99.90;;;;;;5089564;28;20107;-61
2022/05/31 04:10:07;;;;;;;5.20;3.40;;;11.60;99.90;;;;;;5090227;27;20118;-61
2022/05/31 04:12:39;;;;;;;6.93;3.30;;;11.60;99.90;;;;;;5086674;28;20025;-60
2022/05/31 04:15:05;;;;;;;5.97;3.42;;;11.50;99.90;;;;;;5088715;28;20031;-60
2022/05/31 04:17:31;;;;;;;7.28;3.17;;;11.60;99.90;;;;;;5095598;28;20032;-61
2022/05/31 04:19:57;;;;;;;6.20;3.70;;;11.60;99.90;;;;;;5082116;28;20040;-60
2022/05/31 04:22:23;;;;;;;6.53;3.30;;;11.60;99.90;;;;;;5096836;28;20016;-60
2022/05/31 04:24:53;;;;;;;7.47;3.65;;;11.60;99.90;;;;;;5092896;28;20019;-61
2022/05/31 04:27:19;;;;;;;6.43;3.53;;;11.50;99.90;;;;;;5086061;28;20036;-60
2022/05/31 04:29:45;;;;;;;6.18;3.78;;;11.50;99.90;;;;;;5082298;28;20062;-61
2022/05/31 04:32:14;;;;;;;6.45;3.20;;;11.50;99.90;;;;;;5088886;28;20728;-61
2022/05/31 04:34:41;;;;;;;7.55;3.20;;;11.50;99.90;;;;;;5086870;28;20031;-61
2022/05/31 04:37:07;;;;;;;7.25;3.65;;;11.70;99.90;;;;;;5086760;28;20027;-61
2022/05/31 04:39:32;;;;;;;5.50;3.40;;;11.70;99.90;;;;;;5091086;28;20494;-61
2022/05/31 04:41:58;;;;;;;6.80;3.10;;;11.60;99.90;;;;;;5085411;28;20031;-61
2022/05/31 04:44:24;;;;;;;5.43;3.17;;;11.70;99.90;;;;;;5088701;28;20024;-61
2022/05/31 04:46:50;;;;;;;7.35;3.03;;;11.80;99.90;;;;;;5082750;28;20052;-60
2022/05/31 04:49:15;;;;;;;5.43;2.80;;;11.90;99.90;;;;;;5076613;28;20142;-60
2022/05/31 04:51:41;;;;;;;4.45;2.90;;;11.80;99.90;;;;;;5085436;28;20024;-59
2022/05/31 04:54:07;;;;;;;7.15;2.92;;;11.90;99.90;;;;;;5083720;28;20035;-61
2022/05/31 04:56:33;;;;;;;5.90;2.80;;;12.00;99.90;;;;;;5083177;28;20463;-59
2022/05/31 04:58:59;;;;;;;7.97;2.80;;;12.10;99.90;;;;;;5089751;28;20059;-59
2022/05/31 05:01:26;;;;;;;5.70;2.85;;;12.10;99.90;;;;;;5086227;28;20051;-60
2022/05/31 05:03:52;;;;;;;5.72;2.70;;;12.10;99.90;;;;;;5094648;28;20019;-60
2022/05/31 05:06:19;;;;;;;4.90;2.70;;;12.30;99.90;;;;;;5097427;28;20047;-60
2022/05/31 05:08:45;;;;;;;4.75;2.65;;;12.20;99.90;;;;;;5083088;28;20055;-59
2022/05/31 05:11:16;;;;;;;5.72;2.65;;;12.00;99.90;;;;;;5084071;28;20051;-58
2022/05/31 05:13:43;;;;;;;10.88;3.20;;;11.90;99.90;;;;;;5077120;28;20047;-59
2022/05/31 05:16:11;;;;;;;5.00;2.90;;;11.90;99.90;;;;;;5078315;28;20675;-59
2022/05/31 05:18:37;;;;;;;6.70;3.22;;;12.00;99.90;;;;;;5085874;28;20056;-61
2022/05/31 05:21:06;;;;;;;6.63;3.20;;;12.10;99.90;;;;;;5085658;28;20434;-59
2022/05/31 05:23:32;;;;;;;7.32;3.20;;;12.10;99.90;;;;;;5094246;28;20098;-60
2022/05/31 05:25:58;;;;;;;5.93;3.13;;;12.20;99.90;;;;;;5084983;28;20040;-60
2022/05/31 05:31:27;;;;;;;5.82;3.10;;;12.40;99.90;;;;;;5084307;28;20092;-60
2022/05/31 05:33:57;;;;;;;18.00;3.70;;;12.40;99.90;;;;;;5077056;28;20047;-60
2022/05/31 05:36:24;;;;;;;8.38;3.50;;;12.50;99.90;;;;;;5091268;28;20016;-60
2022/05/31 05:38:50;;;;;;;6.68;2.97;;;12.60;99.90;;;;;;5093715;28;20653;-59
2022/05/31 05:41:20;;;;;;;6.70;3.00;;;12.50;99.90;;;;;;5089141;28;20097;-59
2022/05/31 05:43:45;;;;;;;7.18;2.90;;;12.40;99.90;;;;;;5093395;28;20044;-60
2022/05/31 05:46:16;;;;;;;6.35;3.35;;;12.40;99.90;;;;;;5092922;28;20052;-59
2022/05/31 05:48:43;;;;;;;7.53;4.40;;;12.50;99.90;;;;;;5069676;28;20033;-59
2022/05/31 05:51:17;;;;;;;9.07;4.30;;;12.40;99.90;;;;;;5095801;28;20016;-59
2022/05/31 05:53:43;;;;;;;8.77;4.53;;;12.00;99.90;;;;;;5085090;28;20468;-59
2022/05/31 05:56:09;;;;;;;9.98;4.25;;;11.90;99.90;;;;;;5080489;28;20039;-61
2022/05/31 05:58:35;;;;;;;7.68;4.55;;;11.70;99.90;;;;;;5072585;28;20070;-60
2022/05/31 06:01:02;;;;;;;12.25;4.97;;;11.80;99.90;;;;;;5076087;28;20479;-60
2022/05/31 06:03:42;;;;;;;6.40;4.90;;;11.70;99.90;;;;;;5078799;28;20646;-60
2022/05/31 06:06:09;;;;;;;8.98;4.95;;;12.00;99.90;;;;;;5089417;28;20028;-59
2022/05/31 06:08:48;;;;;;;7.50;5.13;;;12.30;99.90;;;;;;5094282;28;20150;-60
2022/05/31 06:11:25;;;;;;;8.07;5.25;;;12.40;99.90;;;;;;5077045;28;20072;-59
2022/05/31 06:14:14;;;;;;;11.35;5.07;;;12.40;99.90;;;;;;5086441;28;20045;-59
2022/05/31 06:16:45;;;;;;;10.70;5.70;;;12.20;99.90;;;;;;5083967;28;20027;-59
2022/05/31 06:19:18;;;;;;;9.65;5.55;;;12.00;99.90;;;;;;5092497;28;20886;-59
2022/05/31 06:21:45;;;;;;;;;;;12.20;99.90;;;;;;5075332;28;20535;-58
2022/05/31 06:24:11;;;;;;;10.82;6.53;;;12.20;99.90;;;;;;5074211;28;20014;-58
2022/05/31 06:26:36;;;;;;;13.85;6.65;;;12.00;99.90;;;;;;5086829;28;20115;-58
2022/05/31 06:29:03;;;;;;;9.40;5.80;;;11.80;99.90;;;;;;5077099;28;20036;-58
2022/05/31 06:31:29;;;;;;;15.32;6.85;;;11.70;99.90;;;;;;5082671;28;20024;-58
2022/05/31 06:33:55;;;;;;;9.95;7.13;;;11.80;99.90;;;;;;5077475;28;20412;-59
2022/05/31 06:36:20;;;;;;;13.55;7.22;;;12.10;99.90;;;;;;5082682;28;20023;-59
2022/05/31 06:38:46;;;;;;;15.10;7.93;;;12.30;99.90;;;;;;5084614;28;20028;-59
2022/05/31 06:41:12;;;;;;;13.63;7.70;;;12.30;99.90;;;;;;5074696;28;20016;-58
2022/05/31 06:43:38;;;;;;;10.05;8.10;;;12.20;99.90;;;;;;5075930;28;20119;-58
2022/05/31 06:46:06;;;;;;;12.20;8.13;;;12.30;99.90;;;;;;5092661;28;20047;-59
2022/05/31 06:48:33;;;;;;;9.30;7.40;;;12.30;99.90;;;;;;5075011;28;20024;-59
2022/05/31 06:51:02;;;;;;;13.27;8.02;;;12.00;99.90;;;;;;5098279;28;20058;-58
2022/05/31 06:56:54;;;;;;;9.98;7.50;;;12.10;99.90;;;;;;5085732;28;20125;-59
2022/05/31 06:59:00;;;;;;;13.68;7.80;;;12.20;99.90;;;;;;5081046;28;20458;-59
2022/05/31 07:01:31;;;;;;;11.15;7.90;;;12.10;99.90;;;;;;5092594;28;20110;-58
2022/05/31 07:03:59;;;;;;;13.65;9.02;;;12.20;99.90;;;;;;5078584;28;20024;-59
2022/05/31 07:06:25;;;;;;;14.43;9.73;;;12.40;99.90;;;;;;5095910;28;20530;-58
2022/05/31 07:08:50;;;;;;;17.73;9.65;;;12.40;99.90;;;;;;5087346;28;20137;-59
2022/05/31 07:11:16;;;;;;;17.48;9.32;;;12.00;99.90;;;;;;5081776;28;20050;-59
2022/05/31 07:13:42;;;;;;;13.80;9.13;;;11.60;99.90;;;;;;5092270;28;20027;-58
2022/05/31 07:16:07;;;;;;;16.17;9.88;;;11.20;99.90;;;;;;5085028;28;20044;-59
2022/05/31 07:18:33;;;;;;;15.23;10.88;;;11.30;99.90;;;;;;5087685;28;20504;-57
2022/05/31 07:20:59;;;;;;;17.33;10.43;;;11.20;99.90;;;;;;5078952;28;20034;-57
2022/05/31 07:23:25;;;;;;;15.35;10.90;;;11.10;99.90;;;;;;5086790;28;20013;-57
2022/05/31 07:25:52;;;;;;;17.95;11.55;;;11.10;99.90;;;;;;5095120;28;20435;-58
2022/05/31 07:28:18;;;;;;;17.70;10.35;;;11.30;99.90;;;;;;5087090;28;20039;-58
2022/05/31 07:30:43;;;;;;;15.15;10.82;;;11.30;99.90;;;;;;5083722;28;20499;-58
2022/05/31 07:33:11;;;;;;;18.42;10.73;;;11.20;99.90;;;;;;5097836;28;20027;-57
2022/05/31 07:35:39;;;;;;;19.45;11.10;;;11.20;99.90;;;;;;5086532;28;20019;-59
2022/05/31 07:38:05;;;;;;;18.70;10.38;;;11.40;99.90;;;;;;5085788;28;20136;-58
2022/05/31 07:40:30;;;;;;;17.55;10.88;;;11.50;99.90;;;;;;5090854;28;20495;-58
2022/05/31 07:42:56;;;;;;;17.40;9.90;;;11.60;99.90;;;;;;5086074;28;20025;-57
2022/05/31 07:45:23;;;;;;;15.98;9.40;;;11.70;99.90;;;;;;5087465;28;20035;-57
2022/05/31 07:47:49;;;;;;;13.40;9.63;;;11.70;99.90;;;;;;5078079;28;20032;-59
2022/05/31 07:50:15;;;;;;;18.80;10.48;;;12.00;99.90;;;;;;5086538;28;20032;-58
2022/05/31 07:52:41;;;;;;;18.10;10.32;;;12.20;99.90;;;;;;5076449;28;20659;-59
2022/05/31 07:55:07;;;;;;;15.27;9.65;;;12.20;99.90;;;;;;5074549;28;20028;-58
2022/05/31 08:00:17;;;;;;;15.52;9.82;;;13.10;99.90;;;;;;5078498;28;20598;-57
2022/05/31 08:02:43;;;;;;;15.13;9.23;;;13.40;99.90;;;;;;5090011;28;20106;-59
2022/05/31 08:05:08;;;;;;;17.15;10.00;;;13.50;99.90;;;;;;5091933;28;20076;-59
2022/05/31 08:07:34;;;;;;;19.27;10.00;;;13.60;99.90;;;;;;5089918;28;20470;-59
2022/05/31 08:09:59;;;;;;;16.05;8.35;;;13.60;99.90;;;;;;5086759;28;20127;-58
2022/05/31 08:12:25;;;;;;;12.45;8.48;;;13.40;99.90;;;;;;5090518;28;20055;-58
2022/05/31 08:14:50;;;;;;;13.75;8.20;;;13.50;99.90;;;;;;5096935;28;20467;-59
2022/05/31 08:17:17;;;;;;;13.75;8.00;;;13.80;99.90;;;;;;5088566;28;20403;-59
2022/05/31 08:19:43;;;;;;;13.18;7.93;;;13.90;99.90;;;;;;5091162;28;20472;-58
2022/05/31 08:22:09;;;;;;;13.63;7.85;;;14.10;99.90;;;;;;5082039;28;20064;-58
2022/05/31 08:24:34;;;;;;;17.08;8.05;;;14.10;99.90;;;;;;5086603;28;20024;-59
2022/05/31 08:27:00;;;;;;;14.52;8.30;;;14.30;99.90;;;;;;5083323;28;20398;-59
2022/05/31 08:29:28;;;;;;;13.90;7.95;;;14.30;99.90;;;;;;5098231;28;20092;-60
2022/05/31 08:31:54;;;;;;;13.45;7.70;;;14.30;99.90;;;;;;5087084;28;20054;-59
2022/05/31 08:34:20;;;;;;;16.73;7.72;;;14.50;99.90;;;;;;5088740;28;20103;-61
2022/05/31 08:36:46;;;;;;;15.60;8.18;;;14.70;99.90;;;;;;5081089;28;20188;-60
2022/05/31 08:39:11;;;;;;;15.75;7.20;;;14.70;99.90;;;;;;5089222;28;20035;-59
2022/05/31 08:41:45;;;;;;;15.23;9.27;;;14.60;99.90;;;;;;5085958;28;20089;-60
2022/05/31 08:44:37;;;;;;;14.70;9.35;;;14.80;99.90;;;;;;5076136;28;20050;-60
2022/05/31 08:47:36;;;;;;;16.83;9.50;;;14.90;99.90;;;;;;5090500;28;20027;-61
2022/05/31 08:53:12;;;;;;;19.83;10.57;;;15.00;99.90;;;;;;5074113;28;20530;-59
2022/05/31 08:58:44;;;;;;;13.35;7.55;;;14.90;99.90;;;;;;5088564;28;20051;-60
2022/05/31 09:01:13;;;;;;;16.08;9.63;;;14.90;99.90;;;;;;5087180;28;20012;-59
2022/05/31 09:04:14;;;;;;;16.13;9.90;;;15.10;99.90;;;;;;5088309;28;20028;-60
2022/05/31 09:06:50;;;;;;;11.18;8.07;;;15.40;99.90;;;;;;5079839;28;20496;-61
2022/05/31 09:09:24;;;;;;;13.82;6.97;;;15.40;99.90;;;;;;5084492;28;20046;-60
2022/05/31 09:12:06;;;;;;;14.23;7.72;;;15.50;99.90;;;;;;5077213;28;20020;-60
2022/05/31 09:14:52;;;;;;;11.55;6.53;;;15.50;99.90;;;;;;5086445;28;20055;-60
2022/05/31 09:17:39;;;;;;;12.80;7.40;;;15.70;99.90;;;;;;5080008;28;20035;-60
2022/05/31 09:20:10;;;;;;;10.70;6.60;;;15.90;99.90;;;;;;5085362;28;20157;-61
2022/05/31 09:22:39;;;;;;;12.30;6.55;;;16.00;99.90;;;;;;5081689;28;20100;-61
2022/05/31 09:25:05;;;;;;;8.77;6.43;;;16.10;99.90;;;;;;5077479;28;20503;-60
2022/05/31 09:27:46;;;;;;;15.30;7.30;;;16.40;99.90;;;;;;5081116;28;20043;-60
2022/05/31 09:30:41;;;;;;;12.40;7.05;;;16.50;99.90;;;;;;5084667;28;20027;-60
2022/05/31 09:33:12;;;;;;;79.57;52.67;;;16.50;99.90;;;;;;5085055;28;20450;-61
2022/05/31 09:36:04;;;;;;;19.30;9.52;;;15.70;99.90;;;;;;5089196;28;20384;-61
2022/05/31 09:38:48;;;;;;;11.95;6.50;;;;;;;;;;5076830;28;20024;-60
2022/05/31 09:41:45;;;;;;;8.90;5.78;;;16.50;99.90;;;;;;5091134;28;20487;-60
2022/05/31 09:44:17;;;;;;;5.65;4.00;;;;;;;;;;5087001;28;20709;-61
2022/05/31 09:46:54;;;;;;;5.80;3.83;;;;;;;;;;5092637;27;20525;-61
2022/05/31 09:49:40;;;;;;;5.65;3.60;;;;;;;;;;5078653;28;20613;-59
2022/05/31 09:52:20;;;;;;;5.68;3.45;;;17.40;99.90;;;;;;5081556;28;20662;-60
2022/05/31 09:58:06;;;;;;;7.35;3.72;;;17.00;99.90;;;;;;5091724;28;20088;-60
2022/05/31 10:00:34;;;;;;;4.93;3.58;;;;;;;;;;5091732;28;20073;-60
2022/05/31 10:03:18;;;;;;;5.07;3.20;;;;;;;;;;5083293;28;20031;-61
2022/05/31 10:05:48;;;;;;;4.65;2.38;;;;;;;;;;5087362;28;20035;-60
2022/05/31 10:08:34;;;;;;;3.72;2.20;;;;;;;;;;5085716;28;20032;-60
2022/05/31 10:11:11;;;;;;;5.18;2.22;;;;;;;;;;5081262;28;20476;-62
2022/05/31 10:13:39;;;;;;;4.25;2.03;;;;;;;;;;5088491;28;20375;-60
2022/05/31 10:16:16;;;;;;;4.60;2.15;;;;;;;;;;5081969;28;20027;-61
2022/05/31 10:18:47;;;;;;;5.13;2.35;;;;;;;;;;5076524;28;20031;-61
2022/05/31 10:21:13;;;;;;;5.68;2.00;;;;;;;;;;5081452;28;20047;-60
2022/05/31 10:23:41;;;;;;;3.97;2.20;;;;;;;;;;5086839;28;20035;-61
2022/05/31 10:26:07;;;;;;;4.07;2.33;;;17.80;99.90;;;;;;5089399;28;21286;-60
2022/05/31 10:28:40;;;;;;;4.10;1.85;;;17.50;99.90;;;;;;5083263;28;20035;-60
2022/05/31 10:31:29;;;;;;;4.20;2.40;;;;;;;;;;5088116;28;20044;-61
2022/05/31 10:34:00;;;;;;;5.72;3.05;;;;;;;;;;5091308;28;20060;-60
2022/05/31 10:36:29;;;;;;;4.45;3.05;;;;;;;;;;5087542;28;20552;-61
2022/05/31 10:38:57;;;;;;;4.70;2.38;;;;;;;;;;5081680;28;20068;-61
2022/05/31 10:41:24;;;;;;;4.45;3.03;;;;;;;;;;5081509;28;20563;-61
2022/05/31 10:43:59;;;;;;;4.07;2.40;;;;;;;;;;5084904;28;20075;-62
2022/05/31 10:46:31;;;;;;;5.05;2.42;;;;;;;;;;5087124;28;23920;-61
2022/05/31 10:48:59;;;;;;;6.07;2.35;;;;;;;;;;5085028;28;20024;-62
2022/05/31 10:51:47;;;;;;;4.47;2.60;;;;;;;;;;5080919;28;20047;-61
2022/05/31 10:54:21;;;;;;;5.13;2.88;;;;;;;;;;5089969;28;20035;-60
2022/05/31 10:57:05;;;;;;;4.80;3.05;;;17.50;99.90;;;;;;5084279;28;20020;-61
2022/05/31 10:59:41;;;;;;;6.45;3.58;;;17.60;99.90;;;;;;5087772;28;20523;-61
2022/05/31 11:02:37;;;;;;;5.03;2.58;;;17.50;99.90;;;;;;5086875;28;20137;-61
2022/05/31 11:05:13;;;;;;;5.30;2.70;;;17.90;99.90;;;;;;5085777;28;20039;-61
2022/05/31 11:11:29;;;;;;;4.53;2.95;;;17.50;99.90;;;;;;5079457;28;20094;-61
2022/05/31 11:14:13;;;;;;;;;;;17.40;99.90;;;;;;5068616;28;20453;-62
2022/05/31 11:17:09;;;;;;;4.40;2.90;;;18.30;99.90;;;;;;5096207;28;19911;-62
2022/05/31 11:19:34;;;;;;;5.55;3.25;;;;;;;;;;5077968;28;20558;-62
2022/05/31 11:22:18;;;;;;;5.10;3.20;;;;;;;;;;5080000;28;20072;-62
2022/05/31 11:24:43;;;;;;;5.40;3.22;;;17.70;99.90;;;;;;5088577;28;20447;-61
2022/05/31 11:27:23;;;;;;;6.97;3.55;;;18.10;99.90;;;;;;5080085;28;20060;-61
2022/05/31 11:30:00;;;;;;;5.55;2.97;;;18.40;99.90;;;;;;5072181;28;20021;-62
2022/05/31 11:32:54;;;;;;;4.30;2.97;;;18.10;99.90;;;;;;5080978;28;20023;-61
2022/05/31 11:35:37;;;;;;;4.45;2.70;;;17.00;99.90;;;;;;5086005;28;20070;-62
2022/05/31 11:38:06;;;;;;;4.70;2.40;;;;;;;;;;5081611;28;20068;-63
2022/05/31 11:40:35;;;;;;;6.35;2.60;;;;;;;;;;5093204;28;20033;-61
2022/05/31 11:43:08;;;;;;;4.63;2.40;;;;;;;;;;5087456;28;20020;-62
2022/05/31 11:45:44;;;;;;;5.13;2.63;;;;;;;;;;5087594;28;20028;-62
2022/05/31 11:48:16;;;;;;;3.97;2.30;;;17.90;99.90;;;;;;5079255;28;20032;-62
2022/05/31 11:50:54;;;;;;;4.97;2.20;;;;;;;;;;5081286;28;20028;-62
2022/05/31 11:53:30;;;;;;;4.72;2.92;;;;;;;;;;5099858;28;20504;-62
2022/05/31 11:56:21;;;;;;;6.40;2.58;;;18.80;99.90;;;;;;5083473;28;20379;-62
2022/05/31 11:58:50;;;;;;;5.25;2.95;;;;;;;;;;5082972;28;20035;-63
2022/05/31 12:01:20;;;;;;;4.32;2.38;;;;;;;;;;5083781;27;20051;-62
2022/05/31 12:03:50;;;;;;;4.53;2.42;;;;;;;;;;5080229;28;20060;-62
2022/05/31 12:06:25;;;;;;;4.10;2.25;;;;;;;;;;5091070;28;20555;-62
2022/05/31 12:08:59;;;;;;;3.45;2.30;;;;;;;;;;5081537;28;20040;-62
2022/05/31 12:11:30;;;;;;;4.57;2.30;;;;;;;;;;5092585;28;20504;-61
2022/05/31 12:13:56;;;;;;;4.93;2.35;;;;;;;;;;5082701;28;20031;-61
2022/05/31 12:16:22;;;;;;;3.40;2.13;;;;;;;;;;5085346;28;20020;-62
2022/05/31 12:18:51;;;;;;;4.60;2.13;;;;;;;;;;5089732;28;20028;-63
2022/05/31 12:21:23;;;;;;;3.92;2.30;;;;;;;;;;5084870;28;20046;-62
2022/05/31 12:23:55;;;;;;;3.88;2.53;;;;;;;;;;5078643;28;20032;-61
2022/05/31 12:26:41;;;;;;;4.35;2.83;;;;;;;;;;5086440;28;20021;-62
2022/05/31 12:29:18;;;;;;;3.67;2.30;;;;;;;;;;5093002;28;20044;-61
2022/05/31 12:31:43;;;;;;;4.55;2.30;;;;;;;;;;5081978;28;20040;-63
2022/05/31 12:34:14;;;;;;;6.32;1.95;;;;;;;;;;5084953;28;20031;-63
2022/05/31 12:36:59;;;;;;;3.50;1.92;;;;;;;;;;5078422;28;20065;-62
2022/05/31 12:39:30;;;;;;;6.55;2.25;;;;;;;;;;5077896;28;20031;-63
2022/05/31 12:41:57;;;;;;;7.78;3.53;;;;;;;;;;5073583;28;20028;-62
2022/05/31 12:44:34;;;;;;;4.50;2.15;;;;;;;;;;5081211;28;20033;-62
2022/05/31 12:47:13;;;;;;;2.83;1.85;;;;;;;;;;5083306;28;20069;-62
2022/05/31 12:49:48;;;;;;;4.95;1.98;;;;;;;;;;5085639;28;20437;-62
2022/05/31 12:54:56;;;;;;;5.35;1.98;;;;;;;;;;5076462;28;20046;-62
2022/05/31 12:57:25;;;;;;;3.50;1.60;;;;;;;;;;5082813;28;20055;-61
2022/05/31 12:59:52;;;;;;;3.58;1.52;;;;;;;;;;5074201;28;20494;-62
2022/05/31 13:02:20;;;;;;;3.28;1.80;;;;;;;;;;5090187;28;20023;-61
2022/05/31 13:04:55;;;;;;;4.30;1.92;;;;;;;;;;5085730;28;20025;-61
2022/05/31 13:07:22;;;;;;;3.20;1.98;;;;;;;;;;5092694;28;20024;-61
2022/05/31 13:09:48;;;;;;;8.38;2.10;;;;;;;;;;5083933;28;20062;-62
2022/05/31 13:21:03;;;;;;;4.60;1.55;;;;;;;;;;5080231;28;20119;-62
2022/05/31 13:23:30;;;;;;;6.45;1.90;;;;;;;;;;5081117;28;20047;-60
2022/05/31 13:25:57;;;;;;;3.55;2.05;;;;;;;;;;5079197;28;20028;-60
2022/05/31 13:28:34;;;;;;;2.55;1.90;;;;;;;;;;5074022;28;20491;-59
2022/05/31 13:31:05;;;;;;;3.42;2.10;;;;;;;;;;5075755;28;20119;-59
2022/05/31 13:33:32;;;;;;;3.40;1.80;;;;;;;;;;5078489;28;20020;-59
2022/05/31 13:36:03;;;;;;;4.85;1.92;;;;;;;;;;5085401;28;20032;-59
2022/05/31 13:38:31;;;;;;;4.32;2.30;;;;;;;;;;5085363;28;20183;-60
2022/05/31 13:40:58;;;;;;;3.53;2.10;;;;;;;;;;5081246;28;20506;-60
2022/05/31 13:43:24;;;;;;;3.92;2.20;;;;;;;;;;5087821;28;20028;-60
2022/05/31 13:45:52;;;;;;;7.47;5.88;;;;;;;;;;5077008;28;20020;-60
2022/05/31 13:48:21;;;;;;;4.45;2.40;;;;;;;;;;5086720;27;20032;-60
2022/05/31 13:50:53;;;;;;;3.35;1.70;;;;;;;;;;5078791;28;20032;-61
2022/05/31 13:53:20;;;;;;;3.30;1.50;;;;;;;;;;5088716;28;20037;-60
2022/05/31 13:55:46;;;;;;;1.67;1.50;;;;;;;;;;5081968;28;20028;-61
2022/05/31 13:58:13;;;;;;;4.07;1.70;;;;;;;;;;5085908;28;20023;-62
2022/05/31 14:00:47;;;;;;;3.03;1.70;;;;;;;;;;5084228;28;20491;-60
2022/05/31 14:03:18;;;;;;;3.30;1.63;;;;;;;;;;5090409;28;20040;-61